createdAt,value
2023-01-30T00:01:13.147Z,87.82
2023-01-30T00:06:32.191Z,88.03
2023-01-30T00:11:51.224Z,87.93
2023-01-30T00:17:10.142Z,87.71
2023-01-30T00:22:29.411Z,87.78
2023-01-30T00:27:49.082Z,87.53
2023-01-30T00:33:08.145Z,87.3
2023-01-30T00:38:27.025Z,87.19
2023-01-30T00:43:46.690Z,87.19
2023-01-30T00:49:06.152Z,87.41
2023-01-30T00:54:25.062Z,88.33
2023-01-30T00:59:44.675Z,89.44
2023-01-30T01:05:03.143Z,89.66
2023-01-30T01:10:22.705Z,89.57
2023-01-30T01:15:42.160Z,89.34
2023-01-30T01:21:01.475Z,88.94
2023-01-30T01:26:21.118Z,88.5
2023-01-30T01:31:40.748Z,87.9
2023-01-30T01:36:59.991Z,87.6
2023-01-30T01:42:19.581Z,87.59
2023-01-30T01:47:39.311Z,87.38
2023-01-30T01:52:58.199Z,87.64
2023-01-30T01:58:17.435Z,88.03
2023-01-30T02:03:36.870Z,88.42
2023-01-30T02:08:56.318Z,88.7
2023-01-30T02:14:15.595Z,88.79
2023-01-30T02:19:34.823Z,88.85
2023-01-30T02:24:53.702Z,89.02
2023-01-30T02:30:13.128Z,89.05
2023-01-30T02:35:31.864Z,88.74
2023-01-30T02:40:50.995Z,88.85
2023-01-30T02:46:10.571Z,88.89
2023-01-30T02:51:30.928Z,89.01
2023-01-30T02:56:50.183Z,88.81
2023-01-30T03:02:09.250Z,88.6
2023-01-30T03:07:28.071Z,87.89
2023-01-30T03:12:47.789Z,87.58
2023-01-30T03:18:07.185Z,87.19
2023-01-30T03:23:26.729Z,86.07
2023-01-30T03:29:12.564Z,85.51
2023-01-30T03:34:32.023Z,85.25
2023-01-30T03:39:51.026Z,85.37
2023-01-30T03:45:10.547Z,85.27
2023-01-30T03:50:29.960Z,85.93
2023-01-30T03:55:48.863Z,86.31
2023-01-30T04:02:23.125Z,85.84
2023-01-30T04:06:28.516Z,85.89
2023-01-30T04:11:47.184Z,85.79
2023-01-30T04:17:06.727Z,87.51
2023-01-30T04:22:25.939Z,89.18
2023-01-30T04:27:45.523Z,90.47
2023-01-30T04:33:04.670Z,90.29
2023-01-30T04:38:24.163Z,89.77
2023-01-30T04:43:43.316Z,89.29
2023-01-30T04:49:02.264Z,88.98
2023-01-30T04:54:21.875Z,88.97
2023-01-30T05:00:56.099Z,89.02
2023-01-30T05:05:02.062Z,89.1
2023-01-30T05:10:21.902Z,89.25
2023-01-30T05:15:41.030Z,89.39
2023-01-30T05:21:00.444Z,89.45
2023-01-30T05:26:20.468Z,89.49
2023-01-30T05:31:39.852Z,89.22
2023-01-30T05:36:58.935Z,88.86
2023-01-30T05:42:18.389Z,88.99
2023-01-30T05:47:38.199Z,88.59
2023-01-30T05:52:57.909Z,88.39
2023-01-30T05:58:17.575Z,88.27
2023-01-30T06:03:36.955Z,88.16
2023-01-30T06:08:56.622Z,88.18
2023-01-30T06:14:15.709Z,88.11
2023-01-30T06:19:35.013Z,88.34
2023-01-30T06:24:54.277Z,88.5
2023-01-30T06:30:13.935Z,88.37
2023-01-30T06:35:33.168Z,88.35
2023-01-30T06:40:52.879Z,88.21
2023-01-30T06:46:12.753Z,88.34
2023-01-30T06:51:31.348Z,88.4
2023-01-30T06:56:50.534Z,88.54
2023-01-30T07:02:09.853Z,88.85
2023-01-30T07:07:28.644Z,88.91
2023-01-30T07:12:47.963Z,88.72
2023-01-30T07:18:06.929Z,88.5
2023-01-30T07:23:26.452Z,88.36
2023-01-30T07:28:46.072Z,88.58
2023-01-30T07:34:04.911Z,88.39
2023-01-30T07:39:24.276Z,88.47
2023-01-30T07:44:42.494Z,88.56
2023-01-30T07:50:01.940Z,89.1
2023-01-30T07:55:21.725Z,90.09
2023-01-30T08:00:41.311Z,91.13
2023-01-30T08:06:00.373Z,92.02
2023-01-30T08:11:19.429Z,92.34
2023-01-30T08:16:39.199Z,92.44
2023-01-30T08:21:58.789Z,92.01
2023-01-30T08:27:18.356Z,91.37
2023-01-30T08:32:37.681Z,91.41
2023-01-30T08:37:57.360Z,91.17
2023-01-30T08:43:16.852Z,91.77
2023-01-30T08:48:47.593Z,92.45
2023-01-30T08:53:55.312Z,93.33
2023-01-30T08:59:14.934Z,93.7
2023-01-30T09:04:34.175Z,93.2
2023-01-30T09:09:53.428Z,92.39
2023-01-30T09:15:12.361Z,91.58
2023-01-30T09:20:31.662Z,90.77
2023-01-30T09:25:50.279Z,89.94
2023-01-30T09:31:09.650Z,89.59
2023-01-30T09:36:29.237Z,89.59
2023-01-30T09:41:48.155Z,89.47
2023-01-30T09:47:08.286Z,89.72
2023-01-30T09:52:27.459Z,89.83
2023-01-30T09:57:46.862Z,90.05
2023-01-30T10:03:06.396Z,90.73
2023-01-30T10:08:25.740Z,90.82
2023-01-30T10:13:45.231Z,90.44
2023-01-30T10:19:04.838Z,90.19
2023-01-30T10:24:24.199Z,90.1
2023-01-30T10:29:43.493Z,89.81
2023-01-30T10:35:02.652Z,90.41
2023-01-30T10:40:22.253Z,89.39
2023-01-30T10:45:41.206Z,89.46
2023-01-30T10:51:00.144Z,89.35
2023-01-30T10:56:19.577Z,89.34
2023-01-30T11:01:38.723Z,89.38
2023-01-30T11:07:02.823Z,90.07
2023-01-30T11:12:17.606Z,88.51
2023-01-30T11:19:19.305Z,89.08
2023-01-30T11:28:16.271Z,89.63
2023-01-30T11:33:34.612Z,90
2023-01-30T11:38:53.530Z,90.05
2023-01-30T11:44:12.895Z,90.07
2023-01-30T11:49:45.686Z,90.26
2023-01-30T11:54:52.264Z,90.46
2023-01-30T12:00:11.396Z,90.41
2023-01-30T12:05:30.585Z,90.77
2023-01-30T12:10:49.990Z,90.79
2023-01-30T12:16:09.749Z,91.14
2023-01-30T12:21:29.066Z,91.34
2023-01-30T12:26:48.455Z,91.39
2023-01-30T12:32:08.772Z,91.42
2023-01-30T12:37:26.520Z,91.41
2023-01-30T12:42:46.230Z,90.93
2023-01-30T12:48:05.728Z,90.69
2023-01-30T12:53:24.646Z,90.79
2023-01-30T12:58:43.458Z,91.09
2023-01-30T13:04:02.620Z,91.01
2023-01-30T13:09:21.489Z,91.21
2023-01-30T13:14:40.436Z,91.4
2023-01-30T13:19:59.524Z,91.47
2023-01-30T13:25:18.310Z,91.69
2023-01-30T13:30:37.404Z,90.93
2023-01-30T13:35:56.994Z,90.77
2023-01-30T13:41:16.693Z,90.8
2023-01-30T13:46:35.581Z,90.71
2023-01-30T13:51:54.873Z,89.85
2023-01-30T13:57:14.067Z,89.65
2023-01-30T14:02:37.937Z,89.08
2023-01-30T14:07:52.049Z,89.07
2023-01-30T14:13:11.409Z,89.51
2023-01-30T14:18:31.270Z,90.12
2023-01-30T14:25:05.327Z,90.49
2023-01-30T14:29:10.640Z,90.84
2023-01-30T14:34:29.885Z,91.16
2023-01-30T14:39:48.976Z,91.35
2023-01-30T14:45:08.070Z,91.55
2023-01-30T14:50:27.214Z,91.86
2023-01-30T14:55:45.514Z,92.14
2023-01-30T15:01:04.827Z,92.13
2023-01-30T15:06:23.283Z,92.08
2023-01-30T15:11:42.789Z,91.95
2023-01-30T15:17:02.372Z,91.74
2023-01-30T15:22:21.560Z,91.87
2023-01-30T15:27:40.922Z,91.9
2023-01-30T15:33:00.336Z,91.81
2023-01-30T15:38:19.646Z,91.45
2023-01-30T15:43:39.377Z,91.49
2023-01-30T15:48:58.431Z,91.74
2023-01-30T15:54:18.004Z,91.73
2023-01-30T15:59:37.738Z,92.31
2023-01-30T16:04:57.213Z,93.49
2023-01-30T16:10:16.277Z,94.07
2023-01-30T16:15:35.865Z,94.05
2023-01-30T16:21:01.897Z,93.89
2023-01-30T16:26:14.388Z,93.78
2023-01-30T16:31:33.282Z,93.17
2023-01-30T16:36:52.372Z,92.97
2023-01-30T16:42:11.441Z,92.68
2023-01-30T16:47:30.451Z,92.43
2023-01-30T16:52:49.755Z,92.33
2023-01-30T16:58:09.109Z,92.32
2023-01-30T17:03:28.199Z,92.66
2023-01-30T17:08:47.271Z,93.03
2023-01-30T17:14:06.602Z,93.26
2023-01-30T17:19:26.187Z,93.36
2023-01-30T17:24:45.319Z,93.34
2023-01-30T17:30:04.794Z,93.29
2023-01-30T17:35:25.177Z,93.34
2023-01-30T17:41:59.333Z,93.58
2023-01-30T17:46:04.365Z,93.54
2023-01-30T17:51:23.669Z,93.45
2023-01-30T17:56:42.607Z,93.54
2023-01-30T18:02:01.975Z,93.58
2023-01-30T18:07:21.209Z,93.44
2023-01-30T18:12:40.709Z,93.38
2023-01-30T18:18:00.606Z,93.27
2023-01-30T18:23:20.139Z,93.15
2023-01-30T18:28:39.233Z,93.26
2023-01-30T18:33:59.019Z,93.15
2023-01-30T18:39:18.055Z,93.09
2023-01-30T18:44:37.730Z,92.99
2023-01-30T18:49:56.941Z,93.12
2023-01-30T18:55:16.423Z,93.16
2023-01-30T19:00:34.695Z,93.29
2023-01-30T19:05:54.250Z,93.17
2023-01-30T19:11:13.749Z,92.99
2023-01-30T19:16:33.940Z,92.86
2023-01-30T19:21:52.019Z,92.74
2023-01-30T19:27:11.001Z,92.62
2023-01-30T19:32:30.376Z,92.56
2023-01-30T19:37:50.796Z,92.59
2023-01-30T19:43:11.048Z,92.72
2023-01-30T19:48:29.651Z,92.61
2023-01-30T19:53:48.314Z,92.61
2023-01-30T19:59:07.196Z,92.4
2023-01-30T20:04:26.582Z,92.53
2023-01-30T20:09:45.500Z,92.7
2023-01-30T20:15:05.221Z,92.9
2023-01-30T20:20:24.454Z,92.85
2023-01-30T20:25:43.914Z,93.06
2023-01-30T20:31:02.837Z,93.03
2023-01-30T20:36:21.725Z,93.2
2023-01-30T20:41:40.797Z,93.21
2023-01-30T20:46:59.770Z,92.88
2023-01-30T20:52:18.584Z,92.99
2023-01-30T20:57:38.390Z,93.01
2023-01-30T21:02:57.188Z,93.04
2023-01-30T21:08:16.794Z,92.81
2023-01-30T21:13:36.956Z,92.53
2023-01-30T21:14:02.637Z,90.52
2023-01-30T21:19:21.951Z,92.29
2023-01-30T21:24:40.994Z,92.28
2023-01-30T21:30:00.317Z,92.19
2023-01-30T21:35:19.727Z,92.09
2023-01-30T21:40:39.057Z,92.05
2023-01-30T21:45:57.934Z,91.96
2023-01-30T21:51:17.612Z,92.19
2023-01-30T21:56:37.576Z,92.16
2023-01-30T22:01:56.330Z,91.94
2023-01-30T22:07:15.538Z,92.22
2023-01-30T22:12:35.078Z,92.22
2023-01-30T22:17:54.363Z,92.11
2023-01-30T22:23:13.205Z,91.96
2023-01-30T22:28:32.975Z,92.1
2023-01-30T22:33:52.054Z,92.11
2023-01-30T22:39:11.299Z,92.03
2023-01-30T22:44:30.915Z,92.05
2023-01-30T22:49:49.995Z,91.95
2023-01-30T22:55:09.567Z,92.17
2023-01-30T23:00:29.639Z,91.87
2023-01-30T23:05:48.139Z,91.73
2023-01-30T23:11:08.150Z,91.54
2023-01-30T23:16:27.603Z,91.84
2023-01-30T23:21:47.083Z,91.93
2023-01-30T23:27:05.726Z,91.79
2023-01-30T23:32:24.639Z,91.49
2023-01-30T23:37:44.613Z,91.43
2023-01-30T23:43:03.730Z,91.47
2023-01-30T23:48:22.887Z,91.94
2023-01-30T23:53:41.797Z,92.02
2023-01-30T23:59:01.124Z,92.11
